sensor_id;sensor_type;location;lat;lon;timestamp;pressure;altitude;pressure_sealevel;temperature;humidity
74079;BME280;62437;51.544;-3.276;2022-08-20T00:01:24;101170.67;;;17.34;42.85
74079;BME280;62437;51.544;-3.276;2022-08-20T00:03:48;101170.86;;;17.64;42.74
74079;BME280;62437;51.544;-3.276;2022-08-20T00:06:17;101168.05;;;17.39;43.11
74079;BME280;62437;51.544;-3.276;2022-08-20T00:08:40;101167.55;;;17.48;43.52
74079;BME280;62437;51.544;-3.276;2022-08-20T00:11:07;101168.82;;;17.63;42.71
74079;BME280;62437;51.544;-3.276;2022-08-20T00:13:34;101166.57;;;17.56;43.29
74079;BME280;62437;51.544;-3.276;2022-08-20T00:15:56;101163.13;;;17.38;43.24
74079;BME280;62437;51.544;-3.276;2022-08-20T00:18:22;101157.06;;;17.77;43.02
74079;BME280;62437;51.544;-3.276;2022-08-20T00:20:50;101160.79;;;17.63;42.87
74079;BME280;62437;51.544;-3.276;2022-08-20T00:23:13;101157.50;;;17.65;42.41
74079;BME280;62437;51.544;-3.276;2022-08-20T00:25:39;101157.20;;;17.53;42.79
74079;BME280;62437;51.544;-3.276;2022-08-20T00:28:04;101159.07;;;17.44;43.23
74079;BME280;62437;51.544;-3.276;2022-08-20T00:30:30;101155.76;;;17.97;42.44
74079;BME280;62437;51.544;-3.276;2022-08-20T00:32:58;101155.81;;;17.78;43.42
74079;BME280;62437;51.544;-3.276;2022-08-20T00:35:23;101158.37;;;17.17;43.12
74079;BME280;62437;51.544;-3.276;2022-08-20T00:37:47;101158.45;;;17.92;42.99
74079;BME280;62437;51.544;-3.276;2022-08-20T00:40:17;101156.83;;;17.71;42.85
74079;BME280;62437;51.544;-3.276;2022-08-20T00:42:42;101158.33;;;18.08;42.89
74079;BME280;62437;51.544;-3.276;2022-08-20T00:45:05;101159.04;;;17.79;42.29
74079;BME280;62437;51.544;-3.276;2022-08-20T00:47:28;101161.06;;;17.69;43.18
74079;BME280;62437;51.544;-3.276;2022-08-20T00:49:54;101158.61;;;17.71;43.20
74079;BME280;62437;51.544;-3.276;2022-08-20T00:52:20;101151.55;;;17.99;42.64
74079;BME280;62437;51.544;-3.276;2022-08-20T00:54:48;101147.03;;;17.74;42.70
74079;BME280;62437;51.544;-3.276;2022-08-20T00:57:16;101142.70;;;17.79;43.14
74079;BME280;62437;51.544;-3.276;2022-08-20T00:59:38;101143.99;;;17.49;42.77
74079;BME280;62437;51.544;-3.276;2022-08-20T01:02:05;101146.00;;;17.89;43.30
74079;BME280;62437;51.544;-3.276;2022-08-20T01:04:30;101141.36;;;17.64;43.58
74079;BME280;62437;51.544;-3.276;2022-08-20T01:06:53;101134.10;;;17.81;43.63
74079;BME280;62437;51.544;-3.276;2022-08-20T01:09:19;101132.75;;;17.52;43.21
74079;BME280;62437;51.544;-3.276;2022-08-20T01:11:45;101134.83;;;17.48;44.25
74079;BME280;62437;51.544;-3.276;2022-08-20T01:14:12;101130.45;;;17.29;43.43
74079;BME280;62437;51.544;-3.276;2022-08-20T01:16:36;101129.53;;;17.43;44.03
74079;BME280;62437;51.544;-3.276;2022-08-20T01:19:02;101128.05;;;17.19;44.04
74079;BME280;62437;51.544;-3.276;2022-08-20T01:21:27;101129.08;;;17.01;43.89
74079;BME280;62437;51.544;-3.276;2022-08-20T01:23:58;101130.41;;;17.24;44.04
74079;BME280;62437;51.544;-3.276;2022-08-20T01:26:24;101129.85;;;17.25;43.90
74079;BME280;62437;51.544;-3.276;2022-08-20T01:28:49;101135.35;;;17.35;43.56
74079;BME280;62437;51.544;-3.276;2022-08-20T01:31:12;101133.46;;;17.39;43.93
74079;BME280;62437;51.544;-3.276;2022-08-20T01:33:36;101133.22;;;17.33;43.78
74079;BME280;62437;51.544;-3.276;2022-08-20T01:36:02;101132.13;;;17.43;44.17
74079;BME280;62437;51.544;-3.276;2022-08-20T01:38:28;101130.07;;;17.00;43.80
74079;BME280;62437;51.544;-3.276;2022-08-20T01:41:09;101133.50;;;16.99;44.52
74079;BME280;62437;51.544;-3.276;2022-08-20T01:43:18;101131.62;;;16.82;45.21
74079;BME280;62437;51.544;-3.276;2022-08-20T01:45:44;101131.98;;;16.75;44.37
74079;BME280;62437;51.544;-3.276;2022-08-20T01:48:09;101130.85;;;17.04;44.01
74079;BME280;62437;51.544;-3.276;2022-08-20T01:50:39;101131.12;;;17.32;44.17
74079;BME280;62437;51.544;-3.276;2022-08-20T01:53:07;101132.50;;;17.16;44.40
74079;BME280;62437;51.544;-3.276;2022-08-20T01:55:26;101130.76;;;16.96;44.12
74079;BME280;62437;51.544;-3.276;2022-08-20T01:57:53;101129.64;;;16.99;44.52
74079;BME280;62437;51.544;-3.276;2022-08-20T02:00:20;101127.51;;;17.39;44.46
74079;BME280;62437;51.544;-3.276;2022-08-20T02:02:43;101129.35;;;17.36;44.14
74079;BME280;62437;51.544;-3.276;2022-08-20T02:05:09;101127.89;;;17.63;44.50
74079;BME280;62437;51.544;-3.276;2022-08-20T02:07:34;101129.96;;;17.60;43.60
74079;BME280;62437;51.544;-3.276;2022-08-20T02:10:01;101130.99;;;17.29;43.62
74079;BME280;62437;51.544;-3.276;2022-08-20T02:12:25;101130.08;;;17.39;44.41
74079;BME280;62437;51.544;-3.276;2022-08-20T02:14:53;101129.04;;;17.79;43.58
74079;BME280;62437;51.544;-3.276;2022-08-20T02:17:19;101127.37;;;17.09;43.98
74079;BME280;62437;51.544;-3.276;2022-08-20T02:19:45;101129.88;;;17.05;44.02
74079;BME280;62437;51.544;-3.276;2022-08-20T02:22:15;101130.06;;;16.94;45.09
74079;BME280;62437;51.544;-3.276;2022-08-20T02:24:33;101133.58;;;16.68;44.53
74079;BME280;62437;51.544;-3.276;2022-08-20T02:26:59;101132.91;;;17.21;44.55
74079;BME280;62437;51.544;-3.276;2022-08-20T02:29:25;101130.74;;;16.95;44.68
74079;BME280;62437;51.544;-3.276;2022-08-20T02:31:50;101125.62;;;17.25;44.73
74079;BME280;62437;51.544;-3.276;2022-08-20T02:34:16;101122.91;;;17.06;44.41
74079;BME280;62437;51.544;-3.276;2022-08-20T02:36:43;101122.12;;;17.33;43.57
74079;BME280;62437;51.544;-3.276;2022-08-20T02:39:10;101117.28;;;17.36;44.37
74079;BME280;62437;51.544;-3.276;2022-08-20T02:41:34;101116.39;;;17.47;43.61
74079;BME280;62437;51.544;-3.276;2022-08-20T02:43:59;101111.88;;;17.39;43.69
74079;BME280;62437;51.544;-3.276;2022-08-20T02:46:24;101105.87;;;17.54;43.93
74079;BME280;62437;51.544;-3.276;2022-08-20T02:48:50;101103.64;;;17.25;43.59
74079;BME280;62437;51.544;-3.276;2022-08-20T02:51:16;101103.23;;;17.19;43.76
74079;BME280;62437;51.544;-3.276;2022-08-20T02:53:41;101103.51;;;17.29;43.99
74079;BME280;62437;51.544;-3.276;2022-08-20T02:56:09;101102.99;;;17.34;43.75
74079;BME280;62437;51.544;-3.276;2022-08-20T02:58:33;101105.44;;;17.27;44.00
74079;BME280;62437;51.544;-3.276;2022-08-20T03:00:58;101106.02;;;17.52;44.15
74079;BME280;62437;51.544;-3.276;2022-08-20T03:03:24;101105.99;;;17.53;43.75
74079;BME280;62437;51.544;-3.276;2022-08-20T03:05:53;101104.05;;;17.59;44.10
74079;BME280;62437;51.544;-3.276;2022-08-20T03:08:16;101101.00;;;17.46;44.05
74079;BME280;62437;51.544;-3.276;2022-08-20T03:10:42;101101.76;;;17.52;43.77
74079;BME280;62437;51.544;-3.276;2022-08-20T03:13:07;101099.78;;;17.59;43.91
74079;BME280;62437;51.544;-3.276;2022-08-20T03:15:33;101102.54;;;17.70;44.09
74079;BME280;62437;51.544;-3.276;2022-08-20T03:17:58;101099.64;;;17.47;44.64
74079;BME280;62437;51.544;-3.276;2022-08-20T03:20:24;101098.52;;;17.59;45.06
74079;BME280;62437;51.544;-3.276;2022-08-20T03:22:49;101096.32;;;17.60;44.42
74079;BME280;62437;51.544;-3.276;2022-08-20T03:25:15;101090.42;;;17.54;43.85
74079;BME280;62437;51.544;-3.276;2022-08-20T03:27:41;101087.35;;;17.49;43.43
74079;BME280;62437;51.544;-3.276;2022-08-20T03:30:08;101079.32;;;17.04;44.47
74079;BME280;62437;51.544;-3.276;2022-08-20T03:32:31;101079.50;;;16.98;44.85
74079;BME280;62437;51.544;-3.276;2022-08-20T03:34:57;101076.29;;;16.84;45.11
74079;BME280;62437;51.544;-3.276;2022-08-20T03:37:22;101078.17;;;16.61;45.50
74079;BME280;62437;51.544;-3.276;2022-08-20T03:39:48;101075.94;;;16.78;45.20
74079;BME280;62437;51.544;-3.276;2022-08-20T03:42:13;101078.99;;;17.18;45.07
74079;BME280;62437;51.544;-3.276;2022-08-20T03:44:39;101077.99;;;16.63;45.49
74079;BME280;62437;51.544;-3.276;2022-08-20T03:47:05;101076.44;;;16.41;45.55
74079;BME280;62437;51.544;-3.276;2022-08-20T03:49:30;101075.88;;;16.61;45.47
74079;BME280;62437;51.544;-3.276;2022-08-20T03:51:56;101073.73;;;16.41;46.41
74079;BME280;62437;51.544;-3.276;2022-08-20T03:54:21;101069.60;;;16.47;46.30
74079;BME280;62437;51.544;-3.276;2022-08-20T03:56:47;101071.27;;;16.42;46.74
74079;BME280;62437;51.544;-3.276;2022-08-20T03:59:13;101075.83;;;16.23;46.42
74079;BME280;62437;51.544;-3.276;2022-08-20T04:01:39;101075.98;;;16.16;47.27
74079;BME280;62437;51.544;-3.276;2022-08-20T04:04:04;101074.40;;;16.22;46.62
74079;BME280;62437;51.544;-3.276;2022-08-20T04:06:30;101074.05;;;16.15;45.83
74079;BME280;62437;51.544;-3.276;2022-08-20T04:08:55;101078.90;;;15.98;47.73
74079;BME280;62437;51.544;-3.276;2022-08-20T04:11:21;101076.45;;;15.98;46.37
74079;BME280;62437;51.544;-3.276;2022-08-20T04:13:47;101075.45;;;16.01;47.03
74079;BME280;62437;51.544;-3.276;2022-08-20T04:16:12;101075.94;;;16.14;45.97
74079;BME280;62437;51.544;-3.276;2022-08-20T04:18:38;101077.14;;;16.37;46.01
74079;BME280;62437;51.544;-3.276;2022-08-20T04:21:04;101077.36;;;16.16;45.65
74079;BME280;62437;51.544;-3.276;2022-08-20T04:23:29;101076.02;;;16.59;45.13
74079;BME280;62437;51.544;-3.276;2022-08-20T04:25:55;101074.84;;;16.47;45.25
74079;BME280;62437;51.544;-3.276;2022-08-20T04:28:22;101077.03;;;16.12;46.02
74079;BME280;62437;51.544;-3.276;2022-08-20T04:30:46;101070.17;;;16.58;45.42
74079;BME280;62437;51.544;-3.276;2022-08-20T04:33:12;101071.22;;;16.57;45.94
74079;BME280;62437;51.544;-3.276;2022-08-20T04:35:37;101075.63;;;16.11;46.91
74079;BME280;62437;51.544;-3.276;2022-08-20T04:38:04;101072.39;;;16.14;46.41
74079;BME280;62437;51.544;-3.276;2022-08-20T04:40:28;101072.37;;;16.11;46.60
74079;BME280;62437;51.544;-3.276;2022-08-20T04:42:54;101073.99;;;16.07;46.87
74079;BME280;62437;51.544;-3.276;2022-08-20T04:45:20;101078.81;;;16.29;47.08
74079;BME280;62437;51.544;-3.276;2022-08-20T04:47:45;101078.52;;;15.92;46.74
74079;BME280;62437;51.544;-3.276;2022-08-20T04:50:11;101081.31;;;15.79;46.48
74079;BME280;62437;51.544;-3.276;2022-08-20T04:52:36;101082.38;;;15.96;46.37
74079;BME280;62437;51.544;-3.276;2022-08-20T04:55:02;101083.49;;;16.06;46.09
74079;BME280;62437;51.544;-3.276;2022-08-20T04:57:28;101084.47;;;16.13;46.67
74079;BME280;62437;51.544;-3.276;2022-08-20T04:59:53;101090.57;;;16.17;46.18
74079;BME280;62437;51.544;-3.276;2022-08-20T05:02:19;101095.29;;;16.31;45.62
74079;BME280;62437;51.544;-3.276;2022-08-20T05:04:45;101098.12;;;16.55;46.01
74079;BME280;62437;51.544;-3.276;2022-08-20T05:07:10;101097.74;;;16.47;45.52
74079;BME280;62437;51.544;-3.276;2022-08-20T05:09:36;101101.02;;;16.41;45.58
74079;BME280;62437;51.544;-3.276;2022-08-20T05:12:02;101102.54;;;16.51;45.26
74079;BME280;62437;51.544;-3.276;2022-08-20T05:14:27;101099.89;;;16.57;45.17
74079;BME280;62437;51.544;-3.276;2022-08-20T05:16:53;101097.47;;;16.70;44.76
74079;BME280;62437;51.544;-3.276;2022-08-20T05:19:18;101104.16;;;16.58;44.66
74079;BME280;62437;51.544;-3.276;2022-08-20T05:21:44;101103.80;;;16.75;45.16
74079;BME280;62437;51.544;-3.276;2022-08-20T05:24:09;101102.62;;;16.78;44.81
74079;BME280;62437;51.544;-3.276;2022-08-20T05:26:35;101105.24;;;16.67;45.06
74079;BME280;62437;51.544;-3.276;2022-08-20T05:29:01;101106.64;;;16.62;45.22
74079;BME280;62437;51.544;-3.276;2022-08-20T05:31:27;101104.61;;;16.80;44.81
74079;BME280;62437;51.544;-3.276;2022-08-20T05:33:53;101107.05;;;16.82;44.75
74079;BME280;62437;51.544;-3.276;2022-08-20T05:36:17;101113.99;;;16.85;44.94
74079;BME280;62437;51.544;-3.276;2022-08-20T05:38:43;101117.85;;;16.90;44.82
74079;BME280;62437;51.544;-3.276;2022-08-20T05:41:09;101122.18;;;16.71;45.01
74079;BME280;62437;51.544;-3.276;2022-08-20T05:43:34;101122.85;;;16.93;44.60
74079;BME280;62437;51.544;-3.276;2022-08-20T05:46:00;101123.78;;;17.17;44.73
74079;BME280;62437;51.544;-3.276;2022-08-20T05:48:25;101120.60;;;16.84;44.77
74079;BME280;62437;51.544;-3.276;2022-08-20T05:50:52;101122.84;;;17.44;44.04
74079;BME280;62437;51.544;-3.276;2022-08-20T05:53:17;101129.91;;;17.53;43.93
74079;BME280;62437;51.544;-3.276;2022-08-20T05:55:42;101133.46;;;17.61;44.47
74079;BME280;62437;51.544;-3.276;2022-08-20T05:58:14;101136.69;;;17.28;43.52
74079;BME280;62437;51.544;-3.276;2022-08-20T06:00:34;101137.37;;;17.41;43.91
74079;BME280;62437;51.544;-3.276;2022-08-20T06:02:58;101128.71;;;17.44;43.81
74079;BME280;62437;51.544;-3.276;2022-08-20T06:05:24;101131.68;;;17.53;43.36
74079;BME280;62437;51.544;-3.276;2022-08-20T06:07:49;101137.21;;;17.32;44.44
74079;BME280;62437;51.544;-3.276;2022-08-20T06:10:16;101137.64;;;17.42;43.74
74079;BME280;62437;51.544;-3.276;2022-08-20T06:12:40;101131.29;;;17.67;44.63
74079;BME280;62437;51.544;-3.276;2022-08-20T06:15:07;101138.26;;;17.32;43.92
74079;BME280;62437;51.544;-3.276;2022-08-20T06:17:32;101135.28;;;17.45;44.14
74079;BME280;62437;51.544;-3.276;2022-08-20T06:19:58;101137.64;;;17.85;44.19
74079;BME280;62437;51.544;-3.276;2022-08-20T06:22:23;101138.02;;;17.58;43.90
74079;BME280;62437;51.544;-3.276;2022-08-20T06:24:48;101137.69;;;17.68;43.69
74079;BME280;62437;51.544;-3.276;2022-08-20T06:27:15;101138.85;;;17.74;43.63
74079;BME280;62437;51.544;-3.276;2022-08-20T06:29:40;101140.55;;;17.85;43.62
74079;BME280;62437;51.544;-3.276;2022-08-20T06:32:06;101144.57;;;18.05;44.67
74079;BME280;62437;51.544;-3.276;2022-08-20T06:34:31;101137.36;;;17.67;43.96
74079;BME280;62437;51.544;-3.276;2022-08-20T06:36:57;101141.19;;;17.70;45.38
74079;BME280;62437;51.544;-3.276;2022-08-20T06:39:23;101146.11;;;17.95;45.41
74079;BME280;62437;51.544;-3.276;2022-08-20T06:41:48;101146.35;;;18.01;44.59
74079;BME280;62437;51.544;-3.276;2022-08-20T06:44:13;101142.77;;;17.85;44.77
74079;BME280;62437;51.544;-3.276;2022-08-20T06:46:39;101147.35;;;17.77;44.57
74079;BME280;62437;51.544;-3.276;2022-08-20T06:49:06;101147.89;;;18.14;46.94
74079;BME280;62437;51.544;-3.276;2022-08-20T06:51:31;101144.14;;;17.86;45.25
74079;BME280;62437;51.544;-3.276;2022-08-20T06:53:56;101146.15;;;17.74;45.49
74079;BME280;62437;51.544;-3.276;2022-08-20T06:56:21;101144.61;;;18.16;46.33
74079;BME280;62437;51.544;-3.276;2022-08-20T06:58:47;101148.26;;;17.96;44.60
74079;BME280;62437;51.544;-3.276;2022-08-20T07:01:12;101144.07;;;18.09;47.30
74079;BME280;62437;51.544;-3.276;2022-08-20T07:03:39;101134.99;;;17.81;47.03
74079;BME280;62437;51.544;-3.276;2022-08-20T07:06:04;101138.42;;;17.19;46.46
74079;BME280;62437;51.544;-3.276;2022-08-20T07:08:29;101137.64;;;17.52;46.78
74079;BME280;62437;51.544;-3.276;2022-08-20T07:10:55;101135.16;;;17.88;46.08
74079;BME280;62437;51.544;-3.276;2022-08-20T07:13:21;101136.82;;;18.13;45.70
74079;BME280;62437;51.544;-3.276;2022-08-20T07:15:46;101132.80;;;17.95;46.76
74079;BME280;62437;51.544;-3.276;2022-08-20T07:18:12;101132.95;;;18.00;46.01
74079;BME280;62437;51.544;-3.276;2022-08-20T07:20:37;101133.83;;;17.37;49.32
74079;BME280;62437;51.544;-3.276;2022-08-20T07:23:03;101134.51;;;17.84;48.53
74079;BME280;62437;51.544;-3.276;2022-08-20T07:25:30;101126.99;;;17.95;47.75
74079;BME280;62437;51.544;-3.276;2022-08-20T07:28:00;101126.87;;;17.63;47.52
74079;BME280;62437;51.544;-3.276;2022-08-20T07:30:24;101117.58;;;17.50;46.89
74079;BME280;62437;51.544;-3.276;2022-08-20T07:32:45;101133.77;;;17.62;48.59
74079;BME280;62437;51.544;-3.276;2022-08-20T07:35:13;101140.34;;;18.03;48.51
74079;BME280;62437;51.544;-3.276;2022-08-20T07:37:37;101138.80;;;18.05;48.05
74079;BME280;62437;51.544;-3.276;2022-08-20T07:40:03;101137.34;;;18.05;46.42
74079;BME280;62437;51.544;-3.276;2022-08-20T07:42:28;101141.03;;;18.17;47.24
74079;BME280;62437;51.544;-3.276;2022-08-20T07:44:53;101144.65;;;18.25;47.64
74079;BME280;62437;51.544;-3.276;2022-08-20T07:47:19;101139.45;;;18.27;45.46
74079;BME280;62437;51.544;-3.276;2022-08-20T07:49:44;101144.02;;;18.48;46.26
74079;BME280;62437;51.544;-3.276;2022-08-20T07:52:10;101137.88;;;18.65;46.25
74079;BME280;62437;51.544;-3.276;2022-08-20T07:54:36;101135.94;;;18.55;47.09
74079;BME280;62437;51.544;-3.276;2022-08-20T07:57:01;101134.03;;;18.80;48.24
74079;BME280;62437;51.544;-3.276;2022-08-20T07:59:27;101135.46;;;19.03;47.40
74079;BME280;62437;51.544;-3.276;2022-08-20T08:01:52;101135.90;;;18.81;48.70
74079;BME280;62437;51.544;-3.276;2022-08-20T08:04:17;101138.24;;;18.91;47.17
74079;BME280;62437;51.544;-3.276;2022-08-20T08:06:43;101139.57;;;18.22;49.17
74079;BME280;62437;51.544;-3.276;2022-08-20T08:09:11;101132.53;;;18.16;50.33
74079;BME280;62437;51.544;-3.276;2022-08-20T08:11:37;101133.42;;;17.93;48.64
74079;BME280;62437;51.544;-3.276;2022-08-20T08:13:59;101138.13;;;18.34;49.89
74079;BME280;62437;51.544;-3.276;2022-08-20T08:16:25;101142.58;;;18.29;50.31
74079;BME280;62437;51.544;-3.276;2022-08-20T08:18:52;101153.42;;;17.93;49.19
74079;BME280;62437;51.544;-3.276;2022-08-20T08:21:16;101158.66;;;17.82;52.70
74079;BME280;62437;51.544;-3.276;2022-08-20T08:23:41;101157.30;;;18.25;51.05
74079;BME280;62437;51.544;-3.276;2022-08-20T08:26:07;101149.68;;;18.18;49.71
74079;BME280;62437;51.544;-3.276;2022-08-20T08:28:33;101150.44;;;18.69;50.94
74079;BME280;62437;51.544;-3.276;2022-08-20T08:30:59;101159.39;;;18.27;50.23
74079;BME280;62437;51.544;-3.276;2022-08-20T08:33:26;101159.57;;;18.62;48.98
74079;BME280;62437;51.544;-3.276;2022-08-20T08:35:50;101157.06;;;17.80;48.93
74079;BME280;62437;51.544;-3.276;2022-08-20T08:38:16;101158.23;;;18.17;48.85
74079;BME280;62437;51.544;-3.276;2022-08-20T08:40:42;101157.68;;;18.68;48.59
74079;BME280;62437;51.544;-3.276;2022-08-20T08:43:07;101170.21;;;18.70;48.60
74079;BME280;62437;51.544;-3.276;2022-08-20T08:45:38;101172.20;;;18.32;47.67
74079;BME280;62437;51.544;-3.276;2022-08-20T08:47:58;101165.71;;;17.98;52.10
74079;BME280;62437;51.544;-3.276;2022-08-20T08:50:25;101165.23;;;18.43;53.26
74079;BME280;62437;51.544;-3.276;2022-08-20T08:52:51;101166.04;;;18.65;48.46
74079;BME280;62437;51.544;-3.276;2022-08-20T08:55:15;101167.39;;;18.69;49.45
74079;BME280;62437;51.544;-3.276;2022-08-20T08:57:39;101165.73;;;18.81;49.01
74079;BME280;62437;51.544;-3.276;2022-08-20T09:00:11;101157.59;;;18.66;50.73
74079;BME280;62437;51.544;-3.276;2022-08-20T09:02:31;101155.37;;;19.27;49.03
74079;BME280;62437;51.544;-3.276;2022-08-20T09:04:56;101155.76;;;19.33;49.32
74079;BME280;62437;51.544;-3.276;2022-08-20T09:07:23;101148.61;;;19.01;49.72
74079;BME280;62437;51.544;-3.276;2022-08-20T09:09:46;101150.78;;;18.97;49.58
74079;BME280;62437;51.544;-3.276;2022-08-20T09:12:16;101156.78;;;19.06;50.94
74079;BME280;62437;51.544;-3.276;2022-08-20T09:14:38;101160.27;;;19.16;50.30
74079;BME280;62437;51.544;-3.276;2022-08-20T09:17:04;101162.37;;;18.13;49.05
74079;BME280;62437;51.544;-3.276;2022-08-20T09:19:29;101162.26;;;18.91;51.22
74079;BME280;62437;51.544;-3.276;2022-08-20T09:21:55;101157.79;;;18.78;50.82
74079;BME280;62437;51.544;-3.276;2022-08-20T09:24:20;101157.85;;;18.93;49.86
74079;BME280;62437;51.544;-3.276;2022-08-20T09:26:45;101156.31;;;19.09;49.92
74079;BME280;62437;51.544;-3.276;2022-08-20T09:29:11;101151.49;;;18.81;50.16
74079;BME280;62437;51.544;-3.276;2022-08-20T09:31:37;101150.21;;;18.85;52.99
74079;BME280;62437;51.544;-3.276;2022-08-20T09:34:02;101148.39;;;19.21;49.23
74079;BME280;62437;51.544;-3.276;2022-08-20T09:36:28;101155.28;;;19.34;49.93
74079;BME280;62437;51.544;-3.276;2022-08-20T09:38:54;101152.73;;;19.14;48.46
74079;BME280;62437;51.544;-3.276;2022-08-20T09:41:19;101146.67;;;19.48;50.73
74079;BME280;62437;51.544;-3.276;2022-08-20T09:43:45;101152.76;;;19.11;48.41
74079;BME280;62437;51.544;-3.276;2022-08-20T09:46:12;101152.15;;;19.20;50.89
74079;BME280;62437;51.544;-3.276;2022-08-20T09:48:36;101153.60;;;18.95;48.95
74079;BME280;62437;51.544;-3.276;2022-08-20T09:51:02;101155.33;;;19.01;51.81
74079;BME280;62437;51.544;-3.276;2022-08-20T09:53:28;101148.68;;;19.33;49.68
74079;BME280;62437;51.544;-3.276;2022-08-20T09:55:54;101152.35;;;18.63;52.97
74079;BME280;62437;51.544;-3.276;2022-08-20T09:58:22;101145.72;;;19.13;50.71
74079;BME280;62437;51.544;-3.276;2022-08-20T10:00:44;101144.51;;;19.34;49.12
74079;BME280;62437;51.544;-3.276;2022-08-20T10:03:09;101144.13;;;18.56;49.54
74079;BME280;62437;51.544;-3.276;2022-08-20T10:05:35;101145.44;;;18.48;51.20
74079;BME280;62437;51.544;-3.276;2022-08-20T10:08:04;101144.22;;;19.02;48.91
74079;BME280;62437;51.544;-3.276;2022-08-20T10:10:25;101135.84;;;19.60;51.20
74079;BME280;62437;51.544;-3.276;2022-08-20T10:12:50;101135.87;;;19.11;50.00
74079;BME280;62437;51.544;-3.276;2022-08-20T10:15:16;101130.66;;;19.29;50.53
74079;BME280;62437;51.544;-3.276;2022-08-20T10:17:42;101127.11;;;18.79;51.05
74079;BME280;62437;51.544;-3.276;2022-08-20T10:20:10;101120.19;;;19.49;50.24
74079;BME280;62437;51.544;-3.276;2022-08-20T10:22:32;101124.37;;;19.11;49.98
74079;BME280;62437;51.544;-3.276;2022-08-20T10:24:58;101121.90;;;19.51;48.91
74079;BME280;62437;51.544;-3.276;2022-08-20T10:27:23;101124.68;;;19.82;48.52
74079;BME280;62437;51.544;-3.276;2022-08-20T10:29:48;101120.97;;;19.64;51.34
74079;BME280;62437;51.544;-3.276;2022-08-20T10:32:15;101118.94;;;19.26;50.15
74079;BME280;62437;51.544;-3.276;2022-08-20T10:34:40;101125.74;;;19.93;49.93
74079;BME280;62437;51.544;-3.276;2022-08-20T10:37:05;101119.78;;;19.76;51.03
74079;BME280;62437;51.544;-3.276;2022-08-20T10:39:31;101122.69;;;20.58;49.14
74079;BME280;62437;51.544;-3.276;2022-08-20T10:41:56;101116.51;;;20.41;48.07
74079;BME280;62437;51.544;-3.276;2022-08-20T10:44:22;101122.08;;;20.50;50.67
74079;BME280;62437;51.544;-3.276;2022-08-20T10:46:47;101120.37;;;20.51;50.46
74079;BME280;62437;51.544;-3.276;2022-08-20T10:49:12;101117.86;;;21.14;48.89
74079;BME280;62437;51.544;-3.276;2022-08-20T10:51:38;101110.87;;;20.65;48.73
74079;BME280;62437;51.544;-3.276;2022-08-20T10:54:04;101124.73;;;20.27;51.08
74079;BME280;62437;51.544;-3.276;2022-08-20T10:56:30;101116.04;;;20.74;49.32
74079;BME280;62437;51.544;-3.276;2022-08-20T10:58:55;101117.73;;;20.80;50.24
74079;BME280;62437;51.544;-3.276;2022-08-20T11:01:20;101118.86;;;21.00;49.10
74079;BME280;62437;51.544;-3.276;2022-08-20T11:03:45;101126.94;;;20.60;49.38
74079;BME280;62437;51.544;-3.276;2022-08-20T11:06:11;101128.35;;;20.38;50.44
74079;BME280;62437;51.544;-3.276;2022-08-20T11:08:37;101125.57;;;21.09;48.34
74079;BME280;62437;51.544;-3.276;2022-08-20T11:11:03;101129.61;;;21.21;49.63
74079;BME280;62437;51.544;-3.276;2022-08-20T11:13:27;101125.67;;;20.85;48.79
74079;BME280;62437;51.544;-3.276;2022-08-20T11:15:53;101133.23;;;21.04;48.49
74079;BME280;62437;51.544;-3.276;2022-08-20T11:18:19;101129.25;;;20.77;49.54
74079;BME280;62437;51.544;-3.276;2022-08-20T11:20:44;101124.66;;;21.44;48.14
74079;BME280;62437;51.544;-3.276;2022-08-20T11:23:10;101134.53;;;20.92;48.84
74079;BME280;62437;51.544;-3.276;2022-08-20T11:25:35;101124.36;;;21.07;50.00
74079;BME280;62437;51.544;-3.276;2022-08-20T11:28:00;101132.64;;;20.89;50.11
74079;BME280;62437;51.544;-3.276;2022-08-20T11:30:28;101131.42;;;20.89;48.65
74079;BME280;62437;51.544;-3.276;2022-08-20T11:32:52;101135.01;;;20.77;48.83
74079;BME280;62437;51.544;-3.276;2022-08-20T11:35:17;101137.65;;;21.27;48.62
74079;BME280;62437;51.544;-3.276;2022-08-20T11:37:42;101131.70;;;21.56;47.92
74079;BME280;62437;51.544;-3.276;2022-08-20T11:40:09;101134.55;;;21.62;47.38
74079;BME280;62437;51.544;-3.276;2022-08-20T11:42:34;101141.05;;;21.29;48.61
74079;BME280;62437;51.544;-3.276;2022-08-20T11:44:59;101144.32;;;21.02;48.01
74079;BME280;62437;51.544;-3.276;2022-08-20T11:47:27;101145.92;;;21.45;47.66
74079;BME280;62437;51.544;-3.276;2022-08-20T11:49:55;101145.93;;;21.30;48.13
74079;BME280;62437;51.544;-3.276;2022-08-20T11:52:15;101146.98;;;21.13;48.35
74079;BME280;62437;51.544;-3.276;2022-08-20T11:54:41;101142.34;;;21.19;47.65
74079;BME280;62437;51.544;-3.276;2022-08-20T11:57:07;101139.52;;;21.68;47.68
74079;BME280;62437;51.544;-3.276;2022-08-20T11:59:32;101133.73;;;21.09;47.86
74079;BME280;62437;51.544;-3.276;2022-08-20T12:01:58;101129.38;;;21.30;47.26
74079;BME280;62437;51.544;-3.276;2022-08-20T12:04:24;101139.07;;;21.10;48.95
74079;BME280;62437;51.544;-3.276;2022-08-20T12:06:49;101133.49;;;21.46;47.81
74079;BME280;62437;51.544;-3.276;2022-08-20T12:09:15;101132.00;;;21.41;47.64
74079;BME280;62437;51.544;-3.276;2022-08-20T12:11:40;101136.03;;;20.97;48.52
74079;BME280;62437;51.544;-3.276;2022-08-20T12:14:06;101134.55;;;20.88;48.44
74079;BME280;62437;51.544;-3.276;2022-08-20T12:16:31;101138.03;;;21.15;48.01
74079;BME280;62437;51.544;-3.276;2022-08-20T12:18:56;101139.50;;;21.21;47.39
74079;BME280;62437;51.544;-3.276;2022-08-20T12:21:22;101136.87;;;21.19;47.06
74079;BME280;62437;51.544;-3.276;2022-08-20T12:23:48;101136.58;;;21.65;47.04
74079;BME280;62437;51.544;-3.276;2022-08-20T12:26:13;101132.34;;;20.66;49.07
74079;BME280;62437;51.544;-3.276;2022-08-20T12:28:39;101132.56;;;21.66;46.47
74079;BME280;62437;51.544;-3.276;2022-08-20T12:31:04;101129.50;;;22.42;45.31